createdAt,value
2018-06-14T00:00:10.334Z,101226.96
2018-06-14T00:05:04.891Z,101218.34
2018-06-14T00:09:59.817Z,101220.13
2018-06-14T00:14:54.444Z,101214.13
2018-06-14T00:19:49.270Z,101201.72
2018-06-14T00:24:43.769Z,101206.56
2018-06-14T00:29:38.489Z,101209.30
2018-06-14T00:34:34.580Z,101205.58
2018-06-14T00:39:31.056Z,101202.31
2018-06-14T00:44:28.227Z,101204.59
2018-06-14T00:49:24.937Z,101203.80
2018-06-14T00:54:21.350Z,101208.27
2018-06-14T00:59:21.098Z,101201.70
2018-06-14T01:04:20.748Z,101211.06
2018-06-14T01:09:19.208Z,101205.92
2018-06-14T01:14:23.306Z,101209.16
2018-06-14T01:19:26.834Z,101203.44
2018-06-14T01:24:28.286Z,101208.45
2018-06-14T01:29:23.973Z,101195.82
2018-06-14T01:34:31.271Z,101196.94
2018-06-14T01:39:35.990Z,101198.80
2018-06-14T01:44:43.114Z,101194.05
2018-06-14T01:49:44.406Z,101197.35
2018-06-14T01:55:03.195Z,101198.84
2018-06-14T02:00:06.205Z,101193.30
2018-06-14T02:05:20.658Z,101194.79
2018-06-14T02:10:25.228Z,101198.47
2018-06-14T02:15:23.784Z,101196.36
2018-06-14T02:20:24.444Z,101200.88
2018-06-14T02:25:22.272Z,101191.92
2018-06-14T02:30:23.244Z,101188.98
2018-06-14T02:35:20.318Z,101199.95
2018-06-14T02:40:24.058Z,101197.38
2018-06-14T02:45:31.359Z,101192.25
2018-06-14T02:50:35.590Z,101196.76
2018-06-14T02:55:30.763Z,101184.22
2018-06-14T03:00:32.639Z,101187.73
2018-06-14T03:05:40.649Z,101187.02
2018-06-14T03:10:43.474Z,101183.38
2018-06-14T03:15:56.076Z,101183.76
2018-06-14T03:20:58.380Z,101177.51
2018-06-14T03:26:03.444Z,101177.51
2018-06-14T03:31:03.085Z,101171.38
2018-06-14T03:35:59.962Z,101168.48
2018-06-14T03:40:57.376Z,101160.67
2018-06-14T03:46:04.946Z,101160.75
2018-06-14T03:51:05.049Z,101157.23
2018-06-14T03:56:08.949Z,101157.36
2018-06-14T04:06:48.309Z,101157.13
2018-06-14T04:11:49.185Z,101165.23
2018-06-14T04:16:45.861Z,101163.86
2018-06-14T04:21:42.852Z,101160.88
2018-06-14T04:26:41.606Z,101173.77
2018-06-14T04:31:38.049Z,101172.58
2018-06-14T04:36:35.631Z,101165.73
2018-06-14T04:41:30.343Z,101164.93
2018-06-14T04:46:29.083Z,101159.35
2018-06-14T04:51:29.745Z,101160.00
2018-06-14T04:56:29.533Z,101157.66
2018-06-14T05:01:24.797Z,101149.14
2018-06-14T05:06:22.069Z,101149.44
2018-06-14T05:11:17.076Z,101149.08
2018-06-14T05:16:18.468Z,101142.03
2018-06-14T05:21:19.321Z,101141.23
2018-06-14T05:27:18.666Z,101145.22
2018-06-14T05:32:20.570Z,101137.09
2018-06-14T05:37:19.084Z,101143.11
2018-06-14T05:42:17.747Z,101142.40
2018-06-14T05:47:15.949Z,101134.31
2018-06-14T05:52:13.606Z,101130.54
2018-06-14T05:57:10.269Z,101133.73
2018-06-14T06:02:06.155Z,101132.95
2018-06-14T06:07:01.344Z,101129.58
2018-06-14T06:12:03.011Z,101131.81
2018-06-14T06:17:00.501Z,101132.27
2018-06-14T06:21:59.350Z,101125.27
2018-06-14T06:26:55.798Z,101119.38
2018-06-14T06:31:52.126Z,101113.41
2018-06-14T06:36:48.108Z,101113.80
2018-06-14T06:41:45.260Z,101107.87
2018-06-14T06:46:41.534Z,101110.34
2018-06-14T06:51:41.244Z,101111.97
2018-06-14T06:56:40.557Z,101119.23
2018-06-14T07:01:57.403Z,101117.36
2018-06-14T07:06:53.959Z,101105.64
2018-06-14T07:11:51.050Z,101106.53
2018-06-14T07:16:46.616Z,101098.21
2018-06-14T07:21:41.311Z,101098.83
2018-06-14T07:26:38.029Z,101092.63
2018-06-14T07:31:35.392Z,101093.08
2018-06-14T07:36:31.341Z,101092.54
2018-06-14T07:41:27.900Z,101092.18
2018-06-14T07:46:22.912Z,101083.98
2018-06-14T07:51:18.337Z,101079.09
2018-06-14T07:56:13.438Z,101077.91
2018-06-14T08:01:07.984Z,101078.04
2018-06-14T08:06:02.714Z,101076.84
2018-06-14T08:10:57.926Z,101068.50
2018-06-14T08:15:52.996Z,101054.42
2018-06-14T08:20:47.527Z,101058.52
2018-06-14T08:25:42.253Z,101065.95
2018-06-14T08:30:36.966Z,101052.79
2018-06-14T08:35:31.663Z,101056.14
2018-06-14T08:40:26.382Z,101053.65
2018-06-14T08:45:21.259Z,101044.72
2018-06-14T08:50:16.362Z,101041.87
2018-06-14T08:55:11.330Z,101040.14
2018-06-14T09:00:06.680Z,101036.52
2018-06-14T09:05:01.723Z,101027.33
2018-06-14T09:09:56.716Z,101014.67
2018-06-14T09:14:51.432Z,101011.27
2018-06-14T09:19:46.216Z,101015.76
2018-06-14T09:24:40.943Z,101015.45
2018-06-14T09:29:36.273Z,101016.36
2018-06-14T09:34:31.031Z,101008.23
2018-06-14T09:39:25.548Z,101004.75
2018-06-14T09:44:20.349Z,101000.27
2018-06-14T09:49:16.293Z,101001.52
2018-06-14T09:54:11.182Z,101004.17
2018-06-14T09:59:06.424Z,100988.14
2018-06-14T10:04:01.152Z,100995.64
2018-06-14T10:08:55.978Z,100993.69
2018-06-14T10:13:51.128Z,100998.61
2018-06-14T10:18:45.900Z,100994.25
2018-06-14T10:23:40.805Z,100986.86
2018-06-14T10:28:36.127Z,100991.91
2018-06-14T10:33:30.655Z,100987.81
2018-06-14T10:38:25.790Z,100987.33
2018-06-14T10:43:20.768Z,100998.05
2018-06-14T10:48:15.777Z,100997.52
2018-06-14T10:53:10.289Z,100993.55
2018-06-14T10:58:04.866Z,100989.28
2018-06-14T11:02:59.322Z,100974.50
2018-06-14T11:07:54.148Z,100969.93
2018-06-14T11:12:48.998Z,100972.30
2018-06-14T11:17:43.864Z,100960.05
2018-06-14T11:22:38.345Z,100958.19
2018-06-14T11:27:32.861Z,100943.81
2018-06-14T11:32:27.438Z,100941.59
2018-06-14T11:37:22.220Z,100938.69
2018-06-14T11:42:17.400Z,100935.59
2018-06-14T11:47:12.061Z,100929.48
2018-06-14T11:52:06.579Z,100929.83
2018-06-14T11:57:01.194Z,100936.29
2018-06-14T12:01:56.148Z,100924.27
2018-06-14T12:06:50.708Z,100918.69
2018-06-14T12:11:45.045Z,100916.05
2018-06-14T12:16:39.738Z,100904.38
2018-06-14T12:21:34.947Z,100909.41
2018-06-14T12:26:30.063Z,100899.02
2018-06-14T12:31:24.795Z,100900.87
2018-06-14T12:36:19.530Z,100887.69
2018-06-14T12:41:14.022Z,100894.69
2018-06-14T12:46:08.616Z,100886.02
2018-06-14T12:51:03.614Z,100876.23
2018-06-14T12:55:58.362Z,100874.80
2018-06-14T13:00:53.557Z,100873.27
2018-06-14T13:05:48.275Z,100874.19
2018-06-14T13:10:43.689Z,100868.98
2018-06-14T13:15:38.555Z,100858.19
2018-06-14T13:20:33.514Z,100860.33
2018-06-14T13:25:28.262Z,100858.21
2018-06-14T13:30:23.640Z,100859.64
2018-06-14T13:35:18.826Z,100863.48
2018-06-14T13:40:14.586Z,100849.53
2018-06-14T13:45:09.341Z,100850.25
2018-06-14T13:50:04.311Z,100850.15
2018-06-14T13:54:59.029Z,100849.93
2018-06-14T13:59:53.734Z,100853.77
2018-06-14T14:04:49.131Z,100857.13
2018-06-14T14:09:43.774Z,100861.03
2018-06-14T14:14:38.583Z,100853.81
2018-06-14T14:19:33.730Z,100852.55
2018-06-14T14:24:28.578Z,100853.27
2018-06-14T14:29:23.354Z,100852.04
2018-06-14T14:34:18.078Z,100854.70
2018-06-14T14:39:13.481Z,100863.46
2018-06-14T14:44:08.258Z,100866.70
2018-06-14T14:49:02.887Z,100862.36
2018-06-14T14:53:57.359Z,100873.17
2018-06-14T14:58:52.170Z,100867.41
2018-06-14T15:03:46.698Z,100859.29
2018-06-14T15:08:41.350Z,100868.83
2018-06-14T15:13:36.631Z,100874.14
2018-06-14T15:18:31.108Z,100879.70
2018-06-14T15:23:26.190Z,100887.52
2018-06-14T15:28:20.920Z,100888.34
2018-06-14T15:33:15.842Z,100894.16
2018-06-14T15:38:10.435Z,100906.67
2018-06-14T15:43:04.926Z,100909.35
2018-06-14T15:47:59.166Z,100911.25
2018-06-14T15:52:54.216Z,100920.48
2018-06-14T15:57:48.944Z,100934.68
2018-06-14T16:02:43.657Z,100938.00
2018-06-14T16:07:38.425Z,100938.98
2018-06-14T16:12:32.949Z,100943.04
2018-06-14T16:17:27.893Z,100941.48
2018-06-14T16:22:22.554Z,100942.84
2018-06-14T16:27:17.290Z,100950.64
2018-06-14T16:32:12.300Z,100955.69
2018-06-14T16:37:07.451Z,100958.16
2018-06-14T16:42:01.745Z,100962.86
2018-06-14T16:47:06.874Z,100959.50
2018-06-14T16:52:01.534Z,100966.45
2018-06-14T16:56:56.427Z,100973.63
2018-06-14T17:01:50.977Z,100986.95
2018-06-14T17:06:45.783Z,100985.14
2018-06-14T17:11:40.684Z,100987.01
2018-06-14T17:16:35.236Z,100977.89
2018-06-14T17:21:30.181Z,100988.55
2018-06-14T17:26:24.674Z,100994.08
2018-06-14T17:31:19.786Z,100994.57
2018-06-14T17:36:14.265Z,100994.58
2018-06-14T17:41:08.962Z,100988.38
2018-06-14T17:46:03.638Z,100989.20
2018-06-14T17:50:59.084Z,100984.05
2018-06-14T17:55:54.237Z,100985.82
2018-06-14T18:00:50.597Z,100993.34
2018-06-14T18:05:46.077Z,100987.96
2018-06-14T18:10:41.056Z,100990.14
2018-06-14T18:15:36.418Z,100992.15
2018-06-14T18:20:30.864Z,100997.25
2018-06-14T18:25:26.688Z,101002.89
2018-06-14T18:30:22.406Z,101005.69
2018-06-14T18:35:17.285Z,101000.11
2018-06-14T18:40:12.196Z,101004.89
2018-06-14T18:45:06.988Z,101002.34
2018-06-14T18:50:02.633Z,101006.16
2018-06-14T18:54:57.507Z,101011.67
2018-06-14T18:59:52.554Z,101016.04
2018-06-14T19:04:47.074Z,101014.94
2018-06-14T19:09:41.862Z,101019.79
2018-06-14T19:14:38.162Z,101019.45
2018-06-14T19:19:32.536Z,101028.25
2018-06-14T19:24:27.510Z,101032.96
2018-06-14T19:29:22.566Z,101043.03
2018-06-14T19:34:17.602Z,101038.69
2018-06-14T19:39:12.516Z,101035.78
2018-06-14T19:44:07.576Z,101040.96
2018-06-14T19:49:02.248Z,101048.84
2018-06-14T19:53:57.146Z,101056.43
2018-06-14T19:58:51.608Z,101061.94
2018-06-14T20:03:46.363Z,101060.86
2018-06-14T20:08:41.234Z,101082.09
2018-06-14T20:13:37.393Z,101086.73
2018-06-14T20:18:32.013Z,101085.78
2018-06-14T20:23:26.577Z,101089.94
2018-06-14T20:28:21.727Z,101092.27
2018-06-14T20:33:16.816Z,101092.27
2018-06-14T20:38:11.223Z,101092.66
2018-06-14T20:43:05.998Z,101095.56
2018-06-14T20:48:01.067Z,101093.28
2018-06-14T20:52:55.703Z,101096.09
2018-06-14T20:57:50.615Z,101100.23
2018-06-14T21:02:45.195Z,101097.55
2018-06-14T21:07:39.725Z,101097.55
2018-06-14T21:12:34.447Z,101110.00
2018-06-14T21:17:29.788Z,101108.14
2018-06-14T21:22:24.453Z,101114.84
2018-06-14T21:27:19.697Z,101115.70
2018-06-14T21:32:14.509Z,101111.47
2018-06-14T21:37:09.394Z,101109.88
2018-06-14T21:42:03.928Z,101101.96
2018-06-14T21:46:58.688Z,101106.46
2018-06-14T21:51:53.570Z,101113.16
2018-06-14T21:56:48.146Z,101111.13
2018-06-14T22:01:42.871Z,101115.97
2018-06-14T22:06:38.345Z,101120.50
2018-06-14T22:11:32.930Z,101120.50
2018-06-14T22:16:27.736Z,101127.33
2018-06-14T22:21:23.074Z,101124.05
2018-06-14T22:26:17.739Z,101123.95
2018-06-14T22:31:12.565Z,101120.41
2018-06-14T22:36:07.571Z,101115.91
2018-06-14T22:41:02.237Z,101114.95
2018-06-14T22:45:56.814Z,101120.30
2018-06-14T22:51:08.718Z,101127.61
2018-06-14T22:56:03.267Z,101122.14
2018-06-14T23:01:38.836Z,101121.92
2018-06-14T23:06:34.901Z,101119.23
2018-06-14T23:11:31.007Z,101114.48
2018-06-14T23:16:25.954Z,101111.94
2018-06-14T23:21:20.328Z,101105.14
2018-06-14T23:26:15.093Z,101109.53
2018-06-14T23:31:10.283Z,101109.91
2018-06-14T23:36:05.043Z,101105.63
2018-06-14T23:41:00.149Z,101114.17
2018-06-14T23:45:54.926Z,101116.46
2018-06-14T23:50:49.239Z,101114.30
2018-06-14T23:55:43.839Z,101118.31
